Time;durP1;ratioP1;P1;durP2;ratioP2;P2;SDS_P1;SDS_P2;PMS_P1;PMS_P2;Temp;Humidity;BMP_temperature;BMP_pressure;BME280_temperature;BME280_humidity;BME280_pressure;Samples;Min_cycle;Max_cycle;Signal;HPM_P1;HPM_P2
2022/06/25 00:00:44;;;;;;;4.63;3.63;;;20.50;99.90;;;;;;5052126;28;20029;-90
2022/06/25 00:03:09;;;;;;;6.55;3.78;;;20.40;99.90;;;;;;5034514;28;20510;-90
2022/06/25 00:05:37;;;;;;;7.03;4.03;;;20.40;99.90;;;;;;5034220;28;20029;-91
2022/06/25 00:08:05;;;;;;;5.50;3.50;;;20.40;99.90;;;;;;5051650;28;20025;-90
2022/06/25 00:10:31;;;;;;;6.03;3.38;;;20.40;99.90;;;;;;5051880;28;20025;-90
2022/06/25 00:12:59;;;;;;;6.97;3.75;;;20.40;99.90;;;;;;5137703;27;20036;-91
2022/06/25 00:15:24;;;;;;;5.25;3.38;;;20.30;99.90;;;;;;5138038;27;20105;-91
2022/06/25 00:17:50;;;;;;;8.00;3.17;;;20.30;99.90;;;;;;5138053;27;20049;-90
2022/06/25 00:20:16;;;;;;;4.47;3.20;;;20.20;99.90;;;;;;5137602;27;20399;-90
2022/06/25 00:22:44;;;;;;;3.38;2.85;;;20.20;99.90;;;;;;5033996;28;20033;-90
2022/06/25 00:25:09;;;;;;;6.28;3.15;;;20.20;99.90;;;;;;5033804;28;20032;-90
2022/06/25 00:27:35;;;;;;;5.55;3.53;;;20.20;99.90;;;;;;5123354;27;20033;-90
2022/06/25 00:30:05;;;;;;;4.32;2.70;;;20.10;99.90;;;;;;5138407;27;20073;-90
2022/06/25 00:32:30;;;;;;;5.95;3.22;;;20.10;99.90;;;;;;5033193;28;20021;-91
2022/06/25 00:34:58;;;;;;;4.47;2.70;;;20.10;99.90;;;;;;5129823;27;20362;-90
2022/06/25 00:37:26;;;;;;;6.60;4.20;;;20.10;99.90;;;;;;5101154;27;20077;-90
2022/06/25 00:39:52;;;;;;;3.83;2.90;;;20.00;99.90;;;;;;5033829;28;20025;-89
2022/06/25 00:42:21;;;;;;;6.40;2.75;;;20.00;99.90;;;;;;5138124;27;20040;-90
2022/06/25 00:44:47;;;;;;;4.38;2.88;;;20.00;99.90;;;;;;5050410;28;20031;-90
2022/06/25 00:47:14;;;;;;;5.57;3.17;;;20.00;99.90;;;;;;5137431;27;20116;-91
2022/06/25 00:49:44;;;;;;;6.70;3.17;;;19.90;99.90;;;;;;5033446;28;20087;-90
2022/06/25 00:52:20;;;;;;;5.03;3.30;;;19.90;99.90;;;;;;5051570;28;20025;-91
2022/06/25 00:54:51;;;;;;;5.25;2.75;;;19.90;99.90;;;;;;5033974;28;20017;-90
2022/06/25 00:57:24;;;;;;;5.05;2.72;;;19.90;99.90;;;;;;5051334;28;20040;-90
2022/06/25 00:59:51;;;;;;;3.85;3.00;;;19.90;99.90;;;;;;5051200;28;20786;-90
2022/06/25 01:02:18;;;;;;;5.20;3.17;;;19.90;99.90;;;;;;5050776;28;20080;-90
2022/06/25 01:04:44;;;;;;;4.63;2.92;;;19.80;99.90;;;;;;5050979;28;20160;-89
2022/06/25 01:07:10;;;;;;;4.40;2.88;;;19.80;99.90;;;;;;5051098;28;20107;-91
2022/06/25 01:09:37;;;;;;;4.45;2.78;;;19.90;99.90;;;;;;5154408;27;20037;-90
2022/06/25 01:12:03;;;;;;;5.57;2.92;;;19.80;99.90;;;;;;5036381;27;20028;-89
2022/06/25 01:14:29;;;;;;;4.32;2.65;;;19.90;99.90;;;;;;5033318;28;20021;-91
2022/06/25 01:16:55;;;;;;;3.13;2.70;;;19.80;99.90;;;;;;5050790;28;20021;-90
2022/06/25 01:19:21;;;;;;;6.03;2.88;;;19.80;99.90;;;;;;5033562;28;20021;-90
2022/06/25 01:21:47;;;;;;;7.90;2.90;;;19.80;99.90;;;;;;5047664;28;20432;-90
2022/06/25 01:24:13;;;;;;;7.25;3.20;;;19.80;99.90;;;;;;5101240;28;20152;-90
2022/06/25 01:26:40;;;;;;;5.85;3.40;;;19.80;99.90;;;;;;5025094;28;20026;-91
2022/06/25 01:29:07;;;;;;;4.63;3.00;;;19.80;99.90;;;;;;5027480;28;20021;-91
2022/06/25 01:31:36;;;;;;;4.15;3.03;;;19.80;99.90;;;;;;5089312;28;20036;-90
2022/06/25 01:34:05;;;;;;;5.32;2.75;;;19.80;99.90;;;;;;5024285;28;20520;-91
2022/06/25 01:36:30;;;;;;;7.28;2.80;;;19.80;99.90;;;;;;5019268;28;20037;-90
2022/06/25 01:38:56;;;;;;;5.45;2.70;;;19.70;99.90;;;;;;5121641;27;20030;-91
2022/06/25 01:41:24;;;;;;;5.72;3.00;;;19.70;99.90;;;;;;5136687;27;20120;-91
2022/06/25 01:43:53;;;;;;;4.97;3.10;;;19.70;99.90;;;;;;5032779;28;20030;-90
2022/06/25 01:46:18;;;;;;;3.60;2.90;;;19.70;99.90;;;;;;5137215;27;20539;-90
2022/06/25 01:48:44;;;;;;;7.93;3.50;;;19.70;99.90;;;;;;5136995;27;20187;-91
2022/06/25 01:51:11;;;;;;;5.88;3.80;;;19.70;99.90;;;;;;5131771;27;20108;-90
2022/06/25 01:53:39;;;;;;;6.18;3.60;;;19.60;99.90;;;;;;5042801;28;20032;-91
2022/06/25 01:56:07;;;;;;;6.18;3.47;;;19.60;99.90;;;;;;5033630;28;20029;-90
2022/06/25 01:58:35;;;;;;;5.75;3.60;;;19.60;99.90;;;;;;5036175;28;20021;-90
2022/06/25 02:01:02;;;;;;;6.20;3.53;;;19.60;99.90;;;;;;5140390;27;20048;-91
2022/06/25 02:03:28;;;;;;;5.50;3.20;;;19.50;99.90;;;;;;5036090;28;20024;-90
2022/06/25 02:05:59;;;;;;;5.30;3.25;;;19.50;99.90;;;;;;5140410;27;20021;-91
2022/06/25 02:08:30;;;;;;;5.05;3.05;;;19.50;99.90;;;;;;5136985;27;20452;-90
2022/06/25 02:10:56;;;;;;;4.97;3.20;;;19.50;99.90;;;;;;5105324;27;20023;-90
2022/06/25 02:13:23;;;;;;;5.40;3.67;;;19.40;99.90;;;;;;5036366;28;20108;-90
2022/06/25 02:15:49;;;;;;;6.03;3.10;;;19.40;99.90;;;;;;5047474;28;20028;-90
2022/06/25 02:18:15;;;;;;;8.48;3.90;;;19.50;99.90;;;;;;5163841;27;20036;-90
2022/06/25 02:20:42;;;;;;;4.28;3.13;;;19.50;99.90;;;;;;5059615;27;20092;-90
2022/06/25 02:23:09;;;;;;;3.70;2.80;;;19.40;99.90;;;;;;5077080;27;20024;-91
2022/06/25 02:25:35;;;;;;;7.70;3.50;;;19.40;99.90;;;;;;5076455;27;20020;-92
2022/06/25 02:28:01;;;;;;;5.05;3.20;;;19.40;99.90;;;;;;5181111;27;20022;-90
2022/06/25 02:30:29;;;;;;;5.10;3.50;;;19.40;99.90;;;;;;5099242;27;20009;-90
2022/06/25 02:32:57;;;;;;;5.95;3.78;;;19.40;99.90;;;;;;5163906;27;20029;-91
2022/06/25 02:35:23;;;;;;;6.30;3.45;;;19.30;99.90;;;;;;5036989;28;20029;-90
2022/06/25 02:37:49;;;;;;;7.88;3.85;;;19.30;99.90;;;;;;5122446;27;20243;-89
2022/06/25 02:40:14;;;;;;;5.65;3.42;;;19.30;99.90;;;;;;5053956;28;20024;-90
2022/06/25 02:42:40;;;;;;;6.35;3.65;;;19.30;99.90;;;;;;5019290;27;20025;-90
2022/06/25 02:45:10;;;;;;;4.88;3.20;;;19.30;99.90;;;;;;5053891;27;20031;-90
2022/06/25 02:47:36;;;;;;;8.20;3.90;;;19.30;99.90;;;;;;5104999;27;20072;-89
2022/06/25 02:50:03;;;;;;;5.07;3.30;;;19.20;99.90;;;;;;5043419;27;20088;-89
2022/06/25 02:52:29;;;;;;;5.20;3.70;;;19.20;99.90;;;;;;5053768;27;20032;-91
2022/06/25 02:54:54;;;;;;;6.07;3.60;;;19.20;99.90;;;;;;5139849;27;20151;-91
2022/06/25 03:00:05;;;;;;;5.95;3.35;;;19.20;99.90;;;;;;5053286;27;20067;-90
2022/06/25 03:02:31;;;;;;;6.13;3.45;;;19.20;99.90;;;;;;5035572;28;20062;-91
2022/06/25 03:04:58;;;;;;;6.15;3.25;;;19.10;99.90;;;;;;5121878;27;20037;-90
2022/06/25 03:07:23;;;;;;;6.38;3.20;;;19.10;99.90;;;;;;5034480;28;20474;-90
2022/06/25 03:09:52;;;;;;;4.88;3.28;;;19.00;99.90;;;;;;5052735;27;20029;-90
2022/06/25 03:12:20;;;;;;;7.85;3.40;;;19.00;99.90;;;;;;5034974;28;20021;-90
2022/06/25 03:14:48;;;;;;;6.97;2.92;;;19.00;99.90;;;;;;5052416;27;20123;-90
2022/06/25 03:17:16;;;;;;;7.65;3.47;;;19.00;99.90;;;;;;5034838;28;20024;-90
2022/06/25 03:19:42;;;;;;;4.15;2.92;;;19.00;99.90;;;;;;5034744;28;20036;-91
2022/06/25 03:22:07;;;;;;;7.25;3.08;;;19.00;99.90;;;;;;5138667;27;20041;-90
2022/06/25 03:24:41;;;;;;;6.43;3.30;;;18.90;99.90;;;;;;5035057;28;20021;-90
2022/06/25 03:27:06;;;;;;;6.05;2.60;;;18.90;99.90;;;;;;5116333;27;20033;-90
2022/06/25 03:29:34;;;;;;;4.93;2.90;;;18.90;99.90;;;;;;5133699;27;20480;-90
2022/06/25 03:32:03;;;;;;;7.75;3.20;;;18.90;99.90;;;;;;5052686;28;20112;-90
2022/06/25 03:34:28;;;;;;;6.32;2.72;;;18.90;99.90;;;;;;5126261;27;20036;-91
2022/06/25 03:36:54;;;;;;;6.18;3.08;;;18.90;99.90;;;;;;5136743;27;20032;-91
2022/06/25 03:39:22;;;;;;;5.80;2.67;;;18.90;99.90;;;;;;5138640;27;20035;-90
2022/06/25 03:41:48;;;;;;;8.38;3.22;;;18.90;99.90;;;;;;5139119;27;20029;-90
2022/06/25 03:44:14;;;;;;;3.45;2.83;;;18.90;99.90;;;;;;5018909;28;20119;-90
2022/06/25 03:46:40;;;;;;;5.55;2.92;;;18.90;99.90;;;;;;5131798;27;20034;-91
2022/06/25 03:49:06;;;;;;;6.68;2.70;;;18.90;99.90;;;;;;5101289;27;20027;-91
2022/06/25 03:51:32;;;;;;;4.80;2.83;;;18.90;99.90;;;;;;5138868;27;20014;-91
2022/06/25 03:53:58;;;;;;;4.93;2.58;;;18.90;99.90;;;;;;5138585;27;20030;-91
2022/06/25 03:56:23;;;;;;;4.75;2.95;;;18.90;99.90;;;;;;5065574;27;20022;-91
2022/06/25 03:58:51;;;;;;;6.05;2.83;;;18.90;99.90;;;;;;5070943;28;20033;-91
2022/06/25 04:01:17;;;;;;;5.30;2.67;;;19.00;99.90;;;;;;5034203;28;20041;-91
2022/06/25 04:03:42;;;;;;;5.22;3.17;;;19.00;99.90;;;;;;5034619;28;20031;-91
2022/06/25 04:06:09;;;;;;;3.65;2.50;;;19.00;99.90;;;;;;5138378;27;20029;-90
2022/06/25 04:08:35;;;;;;;5.30;2.97;;;19.00;99.90;;;;;;5034401;28;20465;-91
2022/06/25 04:11:05;;;;;;;6.13;2.80;;;19.00;99.90;;;;;;5051830;28;20108;-90
2022/06/25 04:13:30;;;;;;;5.03;3.08;;;19.00;99.90;;;;;;5104526;27;20112;-91
2022/06/25 04:15:56;;;;;;;4.93;3.08;;;19.00;99.90;;;;;;5137973;27;20048;-91
2022/06/25 04:18:22;;;;;;;4.40;3.00;;;19.00;99.90;;;;;;5138150;27;20025;-91
2022/06/25 04:20:48;;;;;;;3.70;2.97;;;19.00;99.90;;;;;;5051560;28;20037;-91
2022/06/25 04:23:13;;;;;;;4.60;3.20;;;18.90;99.90;;;;;;5138049;27;20025;-89
2022/06/25 04:25:39;;;;;;;6.78;3.08;;;18.90;99.90;;;;;;5140932;27;20023;-90
2022/06/25 04:30:50;;;;;;;6.38;3.58;;;18.90;99.90;;;;;;5044043;28;20052;-91
2022/06/25 04:33:19;;;;;;;8.30;4.28;;;18.90;99.90;;;;;;5075845;27;20021;-90
2022/06/25 04:35:45;;;;;;;6.20;3.78;;;18.90;99.90;;;;;;5097643;27;20525;-90
2022/06/25 04:38:13;;;;;;;7.80;3.90;;;18.90;99.90;;;;;;5038277;28;20049;-91
2022/06/25 04:40:39;;;;;;;6.85;3.95;;;18.90;99.90;;;;;;5137203;27;20033;-90
2022/06/25 04:43:04;;;;;;;7.00;4.32;;;18.80;99.90;;;;;;5154830;27;20053;-91
2022/06/25 04:45:30;;;;;;;6.53;3.80;;;18.80;99.90;;;;;;5054550;28;20025;-90
2022/06/25 04:48:12;;;;;;;6.68;4.03;;;18.80;99.90;;;;;;5047440;28;20056;-91
2022/06/25 04:50:42;;;;;;;7.15;4.25;;;18.80;99.90;;;;;;5052036;28;20527;-89
2022/06/25 04:53:08;;;;;;;6.93;4.00;;;18.90;99.90;;;;;;5034839;28;20029;-90
2022/06/25 04:55:36;;;;;;;5.55;3.90;;;18.80;99.90;;;;;;5051008;28;20108;-90
2022/06/25 04:58:02;;;;;;;7.45;4.03;;;18.80;99.90;;;;;;5050881;28;20033;-90
2022/06/25 05:00:31;;;;;;;5.85;4.32;;;18.80;99.90;;;;;;5137565;27;20463;-91
2022/06/25 05:02:59;;;;;;;10.10;4.30;;;18.80;99.90;;;;;;5020278;28;20098;-90
2022/06/25 05:05:28;;;;;;;11.15;4.70;;;18.80;99.90;;;;;;5119293;27;20009;-90
2022/06/25 05:07:53;;;;;;;5.20;3.70;;;18.90;99.90;;;;;;5133419;27;20021;-89
2022/06/25 05:10:19;;;;;;;7.47;4.78;;;18.90;99.90;;;;;;5030913;28;20025;-90
2022/06/25 05:15:29;;;;;;;6.75;3.95;;;19.00;99.90;;;;;;5116332;27;20548;-90
2022/06/25 05:17:54;;;;;;;9.02;3.95;;;19.00;99.90;;;;;;5032889;28;20112;-89
2022/06/25 05:20:20;;;;;;;7.32;4.30;;;19.00;99.90;;;;;;5119684;27;20025;-90
2022/06/25 05:22:46;;;;;;;7.00;4.15;;;19.00;99.90;;;;;;5119462;27;20116;-90
2022/06/25 05:25:14;;;;;;;6.60;4.18;;;19.10;99.90;;;;;;5033001;28;20470;-90
2022/06/25 05:27:39;;;;;;;6.72;3.70;;;19.10;99.90;;;;;;5140358;27;20108;-90
2022/06/25 05:30:09;;;;;;;5.80;3.50;;;19.20;99.90;;;;;;5050014;28;20028;-90
2022/06/25 05:32:35;;;;;;;4.70;3.72;;;19.20;99.90;;;;;;5030237;28;20111;-90
2022/06/25 05:35:01;;;;;;;5.90;3.72;;;19.30;99.90;;;;;;5141275;27;20059;-89
2022/06/25 05:37:27;;;;;;;5.97;3.67;;;19.30;99.90;;;;;;5140603;27;20076;-89
2022/06/25 05:39:55;;;;;;;5.65;3.75;;;19.30;99.90;;;;;;5141134;27;20057;-90
2022/06/25 05:42:21;;;;;;;6.63;4.10;;;19.30;99.90;;;;;;5081116;27;20034;-90
2022/06/25 05:44:47;;;;;;;7.55;3.60;;;19.40;99.90;;;;;;5083271;27;20029;-90
2022/06/25 05:47:13;;;;;;;6.40;3.35;;;19.40;99.90;;;;;;5020086;28;20028;-90
2022/06/25 05:49:39;;;;;;;7.80;3.70;;;19.40;99.90;;;;;;5036771;28;20043;-89
2022/06/25 05:52:05;;;;;;;6.07;3.35;;;19.40;99.90;;;;;;5036527;28;20025;-89
2022/06/25 05:54:31;;;;;;;4.97;3.47;;;19.40;99.90;;;;;;5038032;28;20406;-90
2022/06/25 05:56:57;;;;;;;6.78;3.20;;;19.40;99.90;;;;;;5124623;27;20032;-89
2022/06/25 05:59:22;;;;;;;5.53;3.35;;;19.50;99.90;;;;;;5132525;27;20027;-90
2022/06/25 06:01:48;;;;;;;6.20;3.33;;;19.50;99.90;;;;;;5077433;27;20058;-90
2022/06/25 06:04:14;;;;;;;5.65;3.53;;;19.50;99.90;;;;;;5164562;27;20010;-88
2022/06/25 06:06:40;;;;;;;6.40;3.38;;;19.50;99.90;;;;;;5164609;27;20020;-88
2022/06/25 06:09:05;;;;;;;5.95;3.85;;;19.60;99.90;;;;;;5146936;27;20036;-90
2022/06/25 06:11:31;;;;;;;7.18;3.80;;;19.60;99.90;;;;;;5059539;28;20029;-90
2022/06/25 06:13:57;;;;;;;7.50;3.35;;;19.70;99.90;;;;;;5149534;27;20037;-89
2022/06/25 06:16:23;;;;;;;4.45;3.38;;;19.70;99.90;;;;;;5164941;27;20016;-90
2022/06/25 06:18:48;;;;;;;6.10;3.28;;;19.70;99.90;;;;;;5144259;27;20116;-91
2022/06/25 06:21:14;;;;;;;7.80;3.38;;;19.80;99.90;;;;;;5141874;27;20052;-90
2022/06/25 06:23:40;;;;;;;8.18;3.67;;;19.80;99.90;;;;;;5032624;28;20067;-92
2022/06/25 06:26:05;;;;;;;6.65;3.25;;;19.90;99.90;;;;;;5024838;28;20828;-90
2022/06/25 06:28:31;;;;;;;5.07;3.05;;;19.90;99.90;;;;;;5054611;27;20081;-90
2022/06/25 06:30:57;;;;;;;7.43;3.00;;;20.00;99.90;;;;;;5140673;27;20028;-90
2022/06/25 06:33:23;;;;;;;4.82;3.00;;;20.00;99.90;;;;;;5140050;27;20092;-91
2022/06/25 06:35:49;;;;;;;7.18;2.97;;;20.10;99.90;;;;;;5139990;27;20021;-90
2022/06/25 06:38:18;;;;;;;7.25;3.22;;;20.10;99.90;;;;;;5041728;28;20511;-90
2022/06/25 06:40:44;;;;;;;5.28;3.03;;;20.20;99.90;;;;;;5041400;27;20099;-90
2022/06/25 06:43:09;;;;;;;6.53;3.40;;;20.20;99.90;;;;;;5138865;27;20023;-92
2022/06/25 06:45:35;;;;;;;4.38;3.10;;;20.30;99.90;;;;;;5131131;27;20033;-91
2022/06/25 06:48:10;;;;;;;5.07;2.60;;;20.30;99.90;;;;;;5035726;28;20551;-91
2022/06/25 06:50:36;;;;;;;5.55;2.78;;;20.40;99.90;;;;;;5020688;28;20033;-91
2022/06/25 06:53:04;;;;;;;5.10;2.72;;;20.40;99.90;;;;;;5022852;28;20082;-90
2022/06/25 06:55:30;;;;;;;5.22;3.17;;;20.50;99.90;;;;;;5048070;28;20048;-89
2022/06/25 06:57:57;;;;;;;6.20;2.42;;;20.50;99.90;;;;;;5033211;28;20026;-91
2022/06/25 07:00:23;;;;;;;5.38;2.53;;;20.60;99.90;;;;;;5032018;28;20070;-90
2022/06/25 07:02:51;;;;;;;8.30;2.70;;;20.70;99.90;;;;;;5018503;28;20460;-91
2022/06/25 07:05:17;;;;;;;5.60;2.45;;;20.70;99.90;;;;;;5053402;28;20028;-91
2022/06/25 07:07:47;;;;;;;3.78;2.45;;;20.70;99.90;;;;;;5035167;28;20029;-90
2022/06/25 07:10:13;;;;;;;6.55;2.85;;;20.80;99.90;;;;;;5035135;28;20037;-90
2022/06/25 07:12:39;;;;;;;6.28;2.83;;;20.90;99.90;;;;;;5035327;28;20387;-91
2022/06/25 07:15:09;;;;;;;3.63;2.30;;;20.90;99.90;;;;;;5052529;28;20032;-91
2022/06/25 07:17:37;;;;;;;5.78;3.20;;;21.00;99.90;;;;;;5035306;28;20348;-90
2022/06/25 07:20:04;;;;;;;6.78;2.67;;;21.00;99.90;;;;;;5017688;27;20039;-91
2022/06/25 07:22:33;;;;;;;4.20;2.65;;;21.10;99.90;;;;;;5025854;28;20033;-89
2022/06/25 07:25:01;;;;;;;5.25;2.45;;;21.10;99.90;;;;;;5043181;28;20033;-90
2022/06/25 07:27:29;;;;;;;5.85;2.45;;;21.20;99.90;;;;;;5030454;28;20092;-90
2022/06/25 07:29:55;;;;;;;5.28;2.22;;;21.30;99.90;;;;;;5137592;27;20025;-89
2022/06/25 07:32:23;;;;;;;5.13;2.80;;;21.40;99.90;;;;;;5028019;28;20120;-90
2022/06/25 07:34:51;;;;;;;5.75;2.33;;;21.40;99.90;;;;;;5098053;27;20027;-89
2022/06/25 07:37:23;;;;;;;6.90;2.58;;;21.50;99.90;;;;;;5079833;27;20122;-90
2022/06/25 07:39:48;;;;;;;5.53;2.03;;;21.60;99.90;;;;;;5118673;27;20019;-90
2022/06/25 07:42:14;;;;;;;4.50;2.00;;;21.70;99.90;;;;;;5118237;27;20027;-90
2022/06/25 07:44:40;;;;;;;3.97;2.10;;;21.70;99.90;;;;;;5136846;27;20031;-89
2022/06/25 07:47:12;;;;;;;3.95;2.17;;;21.80;99.90;;;;;;5118202;27;20127;-90
2022/06/25 07:52:24;;;;;;;4.70;2.05;;;21.90;99.90;;;;;;5136428;27;20038;-90
2022/06/25 07:54:52;;;;;;;5.30;1.80;;;21.90;99.90;;;;;;5108091;28;20024;-90
2022/06/25 07:57:18;;;;;;;3.60;1.52;;;21.90;99.90;;;;;;5112421;27;20091;-90
2022/06/25 07:59:44;;;;;;;4.38;1.65;;;22.00;99.90;;;;;;5135351;27;20023;-90
2022/06/25 08:02:13;;;;;;;3.67;1.77;;;22.00;99.90;;;;;;5135268;27;20046;-90
2022/06/25 08:04:43;;;;;;;3.47;1.67;;;22.10;99.90;;;;;;5098130;28;20496;-88
2022/06/25 08:07:27;;;;;;;5.05;1.77;;;22.10;99.90;;;;;;5093530;27;20023;-89
2022/06/25 08:09:55;;;;;;;2.42;1.35;;;22.20;99.90;;;;;;5120072;27;20039;-88
2022/06/25 08:12:21;;;;;;;2.55;1.40;;;22.30;99.90;;;;;;5135742;27;20160;-89
2022/06/25 08:14:47;;;;;;;4.15;1.77;;;22.30;99.90;;;;;;5117868;27;20102;-89
2022/06/25 08:17:15;;;;;;;2.40;1.30;;;22.40;99.90;;;;;;5086725;27;20023;-89
2022/06/25 08:19:41;;;;;;;3.00;1.63;;;22.50;99.90;;;;;;5138316;27;20031;-88
2022/06/25 08:22:07;;;;;;;3.47;1.40;;;22.50;99.90;;;;;;5120439;27;20027;-91
2022/06/25 08:24:35;;;;;;;3.33;1.33;;;22.60;99.90;;;;;;5118062;27;20030;-90
2022/06/25 08:27:00;;;;;;;1.77;1.38;;;22.60;99.90;;;;;;5135522;27;20437;-91
2022/06/25 08:29:26;;;;;;;2.45;1.23;;;22.60;99.90;;;;;;5103645;28;20055;-91
2022/06/25 08:31:53;;;;;;;1.85;1.23;;;22.60;99.90;;;;;;5116515;27;20029;-91
2022/06/25 08:34:19;;;;;;;2.65;1.40;;;22.70;99.90;;;;;;5117906;27;20468;-90
2022/06/25 08:36:44;;;;;;;2.60;1.27;;;22.70;99.90;;;;;;5117329;27;20077;-88
2022/06/25 08:39:10;;;;;;;2.30;1.30;;;22.70;99.90;;;;;;5100363;27;20019;-89
2022/06/25 08:41:36;;;;;;;2.72;1.27;;;22.80;99.90;;;;;;5116652;27;20030;-89
2022/06/25 08:44:02;;;;;;;6.47;1.40;;;22.90;99.90;;;;;;5130305;27;20027;-88
2022/06/25 08:46:28;;;;;;;2.80;1.30;;;22.90;99.90;;;;;;5135527;27;20028;-91
2022/06/25 08:48:56;;;;;;;1.90;1.17;;;23.00;99.90;;;;;;5135502;27;20068;-88
2022/06/25 08:51:27;;;;;;;3.55;1.42;;;23.10;99.90;;;;;;5115744;27;20061;-89
2022/06/25 08:53:55;;;;;;;1.85;1.20;;;23.10;99.90;;;;;;5131806;27;20015;-88
2022/06/25 08:56:22;;;;;;;2.75;1.30;;;23.20;99.90;;;;;;5113566;27;20378;-90
2022/06/25 08:58:47;;;;;;;4.00;1.52;;;23.20;99.90;;;;;;5124486;27;20038;-90
2022/06/25 09:01:13;;;;;;;1.88;1.20;;;23.20;99.90;;;;;;5108872;27;20049;-88
2022/06/25 09:03:39;;;;;;;2.63;1.13;;;23.20;99.90;;;;;;5130077;27;20023;-89
2022/06/25 09:06:15;;;;;;;4.55;1.05;;;23.20;99.90;;;;;;5134538;27;20508;-88
2022/06/25 09:08:42;;;;;;;2.45;1.30;;;23.20;99.90;;;;;;5137828;27;20099;-89
2022/06/25 09:11:08;;;;;;;3.53;1.40;;;23.20;99.90;;;;;;5133386;27;20111;-90
2022/06/25 09:13:37;;;;;;;7.10;1.30;;;23.30;99.90;;;;;;5138990;27;20455;-90
2022/06/25 09:16:02;;;;;;;4.20;1.35;;;23.30;99.90;;;;;;5134841;27;20031;-90
2022/06/25 09:18:36;;;;;;;4.07;1.40;;;23.30;99.90;;;;;;5134580;27;20019;-90
2022/06/25 09:21:10;;;;;;;1.80;1.17;;;23.20;99.90;;;;;;5120017;28;20050;-90
2022/06/25 09:23:56;;;;;;;2.60;1.33;;;23.20;99.90;;;;;;5129300;28;20027;-89
2022/06/25 09:26:22;;;;;;;2.88;1.40;;;23.20;99.90;;;;;;5105022;28;20042;-90
2022/06/25 09:28:47;;;;;;;4.38;1.50;;;23.20;99.90;;;;;;5117120;28;20118;-90
2022/06/25 09:31:39;;;;;;;2.53;1.10;;;23.20;99.90;;;;;;5096616;28;20121;-88
2022/06/25 09:34:08;;;;;;;2.55;1.10;;;23.20;99.80;;;;;;5127773;28;20023;-88
2022/06/25 09:36:36;;;;;;;2.47;1.10;;;23.10;99.90;;;;;;5118987;27;20048;-90
2022/06/25 09:39:05;;;;;;;4.95;1.10;;;23.00;99.90;;;;;;5051517;28;20022;-90
2022/06/25 09:41:53;;;;;;;1.85;1.20;;;22.90;99.90;;;;;;5033490;28;20029;-89
2022/06/25 09:44:30;;;;;;;4.05;1.40;;;22.90;99.90;;;;;;5036789;28;20044;-89
2022/06/25 09:46:58;;;;;;;5.00;1.15;;;22.80;99.80;;;;;;5055856;27;20005;-91
2022/06/25 09:49:33;;;;;;;1.48;1.10;;;22.80;99.90;;;;;;5052917;27;20104;-90
2022/06/25 09:52:02;;;;;;;5.40;1.35;;;22.80;99.90;;;;;;5062504;27;20017;-89
2022/06/25 09:54:29;;;;;;;5.15;2.33;;;22.80;99.90;;;;;;5066196;27;20084;-91
2022/06/25 09:56:55;;;;;;;6.85;1.20;;;22.80;99.90;;;;;;5049459;28;20030;-91
2022/06/25 09:59:25;;;;;;;3.50;1.50;;;22.80;99.90;;;;;;5056208;28;20094;-90
2022/06/25 10:01:51;;;;;;;2.65;1.40;;;22.90;99.90;;;;;;5051363;28;20089;-91
2022/06/25 10:04:20;;;;;;;3.20;1.25;;;22.80;99.90;;;;;;5028058;28;20112;-89
2022/06/25 10:06:49;;;;;;;2.92;1.42;;;22.90;99.90;;;;;;5030089;28;20013;-91
2022/06/25 10:09:17;;;;;;;5.47;1.50;;;22.90;99.90;;;;;;5032804;28;20032;-90
2022/06/25 10:11:43;;;;;;;2.40;1.17;;;22.90;99.90;;;;;;5075961;27;20160;-90
2022/06/25 10:14:30;;;;;;;5.40;1.77;;;22.90;99.90;;;;;;5075584;28;20066;-91
2022/06/25 10:16:58;;;;;;;3.10;1.20;;;22.90;99.90;;;;;;5031199;28;20037;-90
2022/06/25 10:19:26;;;;;;;3.05;1.35;;;23.00;99.90;;;;;;5083827;27;20168;-90
2022/06/25 10:21:53;;;;;;;4.38;1.35;;;22.90;99.90;;;;;;5121003;27;20033;-88
2022/06/25 10:24:19;;;;;;;3.97;1.45;;;23.00;99.90;;;;;;5100784;27;20025;-92
2022/06/25 10:26:45;;;;;;;3.05;1.40;;;23.00;99.90;;;;;;5079819;27;20027;-90
2022/06/25 10:29:30;;;;;;;1.85;1.08;;;23.00;99.90;;;;;;5109526;27;20114;-93
2022/06/25 10:32:15;;;;;;;2.58;1.33;;;23.00;99.90;;;;;;5116530;27;20595;-88
2022/06/25 10:34:58;;;;;;;5.78;1.73;;;23.00;99.90;;;;;;5091656;27;20029;-89
2022/06/25 10:37:25;;;;;;;2.53;1.70;;;23.00;99.90;;;;;;5063683;27;20491;-90
2022/06/25 10:39:55;;;;;;;5.10;2.00;;;23.00;99.90;;;;;;5089151;27;20379;-88
2022/06/25 10:45:28;;;;;;;4.82;1.70;;;23.00;99.90;;;;;;5055561;27;19912;-89
2022/06/25 10:47:59;;;;;;;5.32;2.03;;;23.00;99.90;;;;;;5109364;27;20466;-89
2022/06/25 10:50:30;;;;;;;4.28;1.60;;;23.00;99.90;;;;;;5044609;27;20025;-89
2022/06/25 10:53:02;;;;;;;3.63;1.42;;;23.00;99.90;;;;;;5085697;27;20022;-89
2022/06/25 10:55:40;;;;;;;2.90;1.70;;;23.00;99.90;;;;;;5048785;28;20031;-89
2022/06/25 10:58:25;;;;;;;3.33;1.83;;;23.00;99.90;;;;;;5113592;27;20102;-89
2022/06/25 11:01:00;;;;;;;2.03;1.30;;;23.00;99.90;;;;;;5029774;28;20041;-88
2022/06/25 11:03:32;;;;;;;5.15;1.80;;;23.00;99.90;;;;;;5040216;28;20380;-88
2022/06/25 11:06:29;;;;;;;4.85;1.75;;;23.00;99.90;;;;;;5032401;28;20030;-88
2022/06/25 11:08:55;;;;;;;2.15;1.15;;;22.90;99.90;;;;;;5047354;28;20107;-88
2022/06/25 11:11:29;;;;;;;3.08;1.80;;;22.90;99.90;;;;;;5033949;28;20108;-88
2022/06/25 11:13:56;;;;;;;5.82;1.70;;;23.00;99.90;;;;;;5048465;28;20040;-88
2022/06/25 11:16:22;;;;;;;6.47;1.70;;;23.00;99.90;;;;;;5029315;28;20025;-88
2022/06/25 11:18:50;;;;;;;3.28;1.45;;;23.00;99.90;;;;;;5029924;28;20464;-89
2022/06/25 11:21:36;;;;;;;2.97;1.67;;;23.00;99.90;;;;;;5051797;28;20025;-89
2022/06/25 11:24:17;;;;;;;4.47;1.65;;;23.00;99.90;;;;;;5044790;27;20032;-90
2022/06/25 11:29:46;;;;;;;3.10;1.80;;;23.00;99.90;;;;;;5047159;28;20495;-88
2022/06/25 11:32:12;;;;;;;3.10;1.65;;;23.00;99.90;;;;;;5049518;28;20033;-88
2022/06/25 11:34:38;;;;;;;3.95;1.88;;;23.00;99.90;;;;;;5035538;27;20045;-88
2022/06/25 11:37:16;;;;;;;3.75;1.60;;;23.10;99.90;;;;;;5132603;27;20388;-88
2022/06/25 11:39:45;;;;;;;4.10;1.40;;;23.10;99.90;;;;;;5045866;27;20373;-88
2022/06/25 11:42:11;;;;;;;3.45;1.65;;;23.10;99.90;;;;;;5031315;28;20039;-88
2022/06/25 11:44:44;;;;;;;5.03;2.15;;;23.20;99.90;;;;;;5047851;28;20025;-89
2022/06/25 11:47:14;;;;;;;3.97;1.90;;;23.30;99.90;;;;;;5030497;28;20037;-89
2022/06/25 11:49:42;;;;;;;4.30;1.80;;;23.40;99.90;;;;;;5047206;28;20029;-88
2022/06/25 11:52:09;;;;;;;3.72;1.92;;;23.50;99.90;;;;;;5066001;27;20113;-89
2022/06/25 11:54:36;;;;;;;3.20;1.80;;;23.50;99.90;;;;;;5134133;27;20027;-89
2022/06/25 11:57:05;;;;;;;3.95;1.55;;;23.60;99.90;;;;;;5040851;27;20056;-90
2022/06/25 11:59:33;;;;;;;2.58;1.42;;;23.70;99.90;;;;;;5075638;27;20021;-86
2022/06/25 12:02:03;;;;;;;3.10;1.80;;;23.70;99.90;;;;;;5132787;27;20048;-87
2022/06/25 12:04:31;;;;;;;5.32;1.73;;;23.70;99.80;;;;;;5128303;27;20029;-89
2022/06/25 12:06:57;;;;;;;2.95;1.73;;;23.80;99.90;;;;;;5022022;28;20021;-86
2022/06/25 12:09:23;;;;;;;5.15;1.73;;;23.80;99.90;;;;;;5052261;27;20035;-88
2022/06/25 12:11:52;;;;;;;4.68;1.75;;;23.90;99.90;;;;;;5034308;28;20077;-88
2022/06/25 12:14:31;;;;;;;5.45;1.77;;;23.90;99.60;;;;;;5118690;27;20036;-88
2022/06/25 12:16:58;;;;;;;4.55;1.63;;;23.90;99.10;;;;;;5032850;28;20021;-86
2022/06/25 12:19:50;;;;;;;6.95;1.90;;;24.00;99.30;;;;;;5047449;27;20040;-89
2022/06/25 12:22:24;;;;;;;3.20;1.98;;;24.00;99.30;;;;;;5042512;28;20036;-88
2022/06/25 12:24:54;;;;;;;5.55;2.00;;;24.00;99.40;;;;;;5033453;27;20022;-86
2022/06/25 12:27:20;;;;;;;;;;;24.00;99.50;;;;;;5094248;27;20051;-88
2022/06/25 12:29:51;;;;;;;6.97;4.20;;;24.00;98.80;;;;;;5034931;28;20343;-88
2022/06/25 12:32:17;;;;;;;7.75;3.17;;;24.00;99.40;;;;;;5034106;28;20021;-89
2022/06/25 12:34:50;;;;;;;4.28;2.35;;;24.00;99.50;;;;;;5034078;28;20078;-88
2022/06/25 12:37:31;;;;;;;4.05;1.90;;;24.00;99.50;;;;;;5022619;28;20119;-88
2022/06/25 12:39:59;;;;;;;;;;;24.00;99.60;;;;;;5026109;28;20033;-88
2022/06/25 12:42:33;;;;;;;4.40;2.10;;;24.10;99.20;;;;;;5085361;28;19954;-89
2022/06/25 12:44:59;;;;;;;4.55;2.30;;;24.10;99.40;;;;;;5114536;27;20021;-91
2022/06/25 12:47:38;;;;;;;3.60;1.50;;;24.10;98.70;;;;;;5014494;28;20018;-93
2022/06/25 12:50:06;;;;;;;8.70;4.07;;;24.10;99.00;;;;;;5001921;28;20095;-91
2022/06/25 12:52:39;;;;;;;4.68;1.88;;;24.20;99.40;;;;;;5094944;28;20032;-91
2022/06/25 12:55:06;;;;;;;4.93;2.10;;;24.20;99.10;;;;;;5070599;27;20525;-91
2022/06/25 12:57:36;;;;;;;5.75;2.15;;;24.30;99.30;;;;;;5077150;28;20150;-86
2022/06/25 13:00:06;;;;;;;5.15;1.50;;;24.30;99.40;;;;;;5013989;28;20053;-87
2022/06/25 13:02:32;;;;;;;3.17;1.52;;;24.40;99.40;;;;;;5025530;27;20090;-88
2022/06/25 13:05:00;;;;;;;6.85;2.40;;;24.50;99.30;;;;;;5074357;28;20022;-89
2022/06/25 13:07:46;;;;;;;;;;;;;;;;;;;;;
2022/06/25 13:10:15;;;;;;;3.50;2.25;;;24.60;98.70;;;;;;5028201;28;20037;-88